Merry Hill, North Carolina
Current Conditions -  °F | °C
As of 6:55 PM on Saturday 22 Nov 2014 (Local Time) from KASJ Reporting Station
Clear Clear  
Wind Chill: 33°   Ceiling: Unl
Heat Index: 33°   Visibility: 10mi
Dew Point: 23°   Wind: 0mph
Humidity: 68%   Direction: NA
Pressure: 30.38"   Gusts: NA
Location:  36.2°N, 77.06°W
Report Text: KASJ 222355Z AUTO 00000KT 10SM CLR 00/M05 A3038 RMK AO2 T00031049 10114 20003
Loading
Personal Weather Stations






























Interactive Weather Map New forecast layout! Learn more

10-Day Weather Forecast

Advertisements
Track Severe Weather on mobile